Time;durP1;ratioP1;P1;durP2;ratioP2;P2;SDS_P1;SDS_P2;PMS_P1;PMS_P2;Temp;Humidity;BMP_temperature;BMP_pressure;BME280_temperature;BME280_humidity;BME280_pressure;Samples;Min_cycle;Max_cycle;Signal;HPM_P1;HPM_P2
2022/03/11 00:00:31;;;;;;;;;;;;;;;-143.90;85.28;55027.81;2097021;28;19924;-66
2022/03/11 00:01:51;;;;;;;;;;;;;;;-143.90;85.35;55033.78;2097395;28;19936;-67
2022/03/11 00:03:13;;;;;;;;;;;;;;;-143.90;86.23;55033.78;2097938;28;20054;-67
2022/03/11 00:04:33;;;;;;;;;;;;;;;-143.90;86.96;55063.56;2097611;28;19926;-65
2022/03/11 00:05:54;;;;;;;;;;;;;;;-143.90;87.85;55021.88;2098130;28;19964;-64
2022/03/11 00:07:15;;;;;;;;;;;;;;;-143.90;87.92;55045.69;2099478;28;19920;-64
2022/03/11 00:08:38;;;;;;;;;;;;;;;-143.90;88.79;55047.69;2098483;28;19959;-65
2022/03/11 00:10:01;;;;;;;;;;;;;;;-143.90;88.90;55039.75;2099675;28;19927;-65
2022/03/11 00:11:22;;;;;;;;;;;;;;;-143.90;89.31;55033.78;2091574;28;19971;-65
2022/03/11 00:12:43;;;;;;;;;;;;;;;-143.90;89.50;55069.53;2097084;27;19924;-65
2022/03/11 00:14:04;;;;;;;;;;;;;;;-143.90;89.64;55039.75;2096967;28;19928;-65
2022/03/11 00:15:25;;;;;;;;;;;;;;;-143.90;89.45;55041.72;2097069;28;19924;-64
2022/03/11 00:16:45;;;;;;;;;;;;;;;-143.90;89.62;55015.91;2097798;28;19921;-64
2022/03/11 00:18:06;;;;;;;;;;;;;;;-143.90;89.30;55055.63;2089946;28;19940;-63
2022/03/11 00:19:27;;;;;;;;;;;;;;;-143.90;89.51;55031.78;2095359;28;20043;-64
2022/03/11 00:20:48;;;;;;;;;;;;;;;-143.90;89.28;55011.94;2097304;28;19920;-65
2022/03/11 00:22:10;;;;;;;;;;;;;;;-143.90;89.14;55043.72;2096706;28;19924;-65
2022/03/11 00:23:30;;;;;;;;;;;;;;;-143.90;89.71;55031.78;2097676;28;19924;-64
2022/03/11 00:24:51;;;;;;;;;;;;;;;-143.90;89.92;55035.78;2099281;28;20372;-64
2022/03/11 00:26:12;;;;;;;;;;;;;;;-143.90;90.36;55035.78;2096742;28;19927;-64
2022/03/11 00:27:32;;;;;;;;;;;;;;;-143.90;89.37;55004.00;2097308;28;19968;-65
2022/03/11 00:28:53;;;;;;;;;;;;;;;-143.90;89.64;55043.72;2097961;28;20047;-65
2022/03/11 00:30:14;;;;;;;;;;;;;;;-143.90;89.71;55023.84;2096598;28;20002;-64
2022/03/11 00:31:34;;;;;;;;;;;;;;;-143.90;89.38;55007.97;2098561;28;20027;-64
2022/03/11 00:32:55;;;;;;;;;;;;;;;-143.90;89.18;55027.81;2098297;28;19971;-65
2022/03/11 00:34:17;;;;;;;;;;;;;;;-143.90;89.36;55019.88;2098489;28;20384;-64
2022/03/11 00:35:37;;;;;;;;;;;;;;;-143.90;89.05;55043.72;2097135;28;20825;-64
2022/03/11 00:36:58;;;;;;;;;;;;;;;-143.90;89.21;55053.63;2097850;28;20015;-64
2022/03/11 00:38:19;;;;;;;;;;;;;;;-143.90;89.46;55035.78;2097815;28;20040;-64
2022/03/11 00:39:39;;;;;;;;;;;;;;;-143.90;89.91;55035.78;2097751;28;20387;-65
2022/03/11 00:41:00;;;;;;;;;;;;;;;-143.90;89.95;55075.47;2097738;28;19920;-65
2022/03/11 00:42:21;;;;;;;;;;;;;;;-143.90;89.54;55059.59;2097474;28;19927;-65
2022/03/11 00:43:42;;;;;;;;;;;;;;;-143.90;89.86;55031.78;2097882;28;19973;-64
2022/03/11 00:45:03;;;;;;;;;;;;;;;-143.90;89.54;55063.56;2096960;28;20320;-63
2022/03/11 00:46:24;;;;;;;;;;;;;;;-143.90;89.73;55059.59;2097218;28;20295;-64
2022/03/11 00:47:44;;;;;;;;;;;;;;;-143.90;90.60;55063.56;2099278;28;19956;-65
2022/03/11 00:49:05;;;;;;;;;;;;;;;-143.90;90.94;55035.78;2097897;28;19921;-65
2022/03/11 00:50:26;;;;;;;;;;;;;;;-143.90;91.17;55047.69;2104148;28;19961;-65
2022/03/11 00:51:46;;;;;;;;;;;;;;;-143.90;91.41;55077.47;2098898;28;19921;-64
2022/03/11 00:53:07;;;;;;;;;;;;;;;-143.90;92.14;55063.56;2098515;28;19940;-64
2022/03/11 00:54:30;;;;;;;;;;;;;;;-143.90;92.23;55059.59;2099927;28;19943;-64
2022/03/11 00:55:51;;;;;;;;;;;;;;;-143.90;92.24;55015.91;2098630;28;19921;-64
2022/03/11 00:57:12;;;;;;;;;;;;;;;-143.90;92.86;55027.81;2096486;28;19920;-62
2022/03/11 00:58:32;;;;;;;;;;;;;;;-143.90;92.94;55043.72;2097654;28;19921;-64
2022/03/11 00:59:53;;;;;;;;;;;;;;;-143.90;93.12;55077.47;2096189;28;19920;-64
2022/03/11 01:01:14;;;;;;;;;;;;;;;-143.90;93.61;55035.78;2098151;28;19927;-63
2022/03/11 01:02:35;;;;;;;;;;;;;;;-143.90;93.72;55063.56;2098006;28;20446;-65
2022/03/11 01:03:56;;;;;;;;;;;;;;;-143.90;94.05;55045.69;2096934;28;19920;-65
2022/03/11 01:05:17;;;;;;;;;;;;;;;-143.90;94.14;55031.78;2097170;28;19924;-64
2022/03/11 01:06:38;;;;;;;;;;;;;;;-143.90;94.15;55049.66;2098292;28;19924;-64
2022/03/11 01:07:59;;;;;;;;;;;;;;;-143.90;94.15;55057.59;2097122;28;20504;-63
2022/03/11 01:09:19;;;;;;;;;;;;;;;-143.90;93.52;55043.72;2097874;28;19924;-64
2022/03/11 01:10:41;;;;;;;;;;;;;;;-143.90;93.18;55067.53;2097233;28;20097;-63
2022/03/11 01:12:01;;;;;;;;;;;;;;;-143.90;93.03;55043.72;2098951;28;19925;-64
2022/03/11 01:13:22;;;;;;;;;;;;;;;-143.90;93.36;55041.72;2096848;28;20379;-65
2022/03/11 01:14:43;;;;;;;;;;;;;;;-143.90;93.74;55037.75;2096899;28;19963;-65
2022/03/11 01:16:03;;;;;;;;;;;;;;;-143.90;94.09;55055.63;2097116;28;19926;-64
2022/03/11 01:17:24;;;;;;;;;;;;;;;-143.90;94.60;55039.75;2097812;28;19924;-62
2022/03/11 01:18:45;;;;;;;;;;;;;;;-143.90;94.75;55041.72;2098802;28;19924;-64
2022/03/11 01:20:06;;;;;;;;;;;;;;;-143.90;94.73;55043.72;2096717;28;19921;-64
2022/03/11 01:21:26;;;;;;;;;;;;;;;-143.90;94.56;55000.03;2096760;28;19919;-64
2022/03/11 01:22:47;;;;;;;;;;;;;;;-143.90;95.24;55031.78;2096558;28;20692;-65
2022/03/11 01:24:09;;;;;;;;;;;;;;;-143.90;95.19;55039.75;2098094;28;19920;-64
2022/03/11 01:25:30;;;;;;;;;;;;;;;-143.90;95.18;55041.72;2097751;28;20034;-64
2022/03/11 01:26:50;;;;;;;;;;;;;;;-143.90;95.29;55067.53;2096981;28;19943;-64
2022/03/11 01:28:13;;;;;;;;;;;;;;;-143.90;95.91;55033.78;2098631;28;19924;-64
2022/03/11 01:29:34;;;;;;;;;;;;;;;-143.90;95.80;55000.03;2097890;28;19924;-63
2022/03/11 01:30:55;;;;;;;;;;;;;;;-143.90;96.03;55045.69;2095903;28;19924;-62
2022/03/11 01:32:16;;;;;;;;;;;;;;;-143.90;96.61;55043.72;2097627;27;19920;-65
2022/03/11 01:33:38;;;;;;;;;;;;;;;-143.90;96.80;55039.75;2096921;28;19923;-64
2022/03/11 01:34:58;;;;;;;;;;;;;;;-143.90;96.74;55004.00;2095926;28;20474;-65
2022/03/11 01:36:20;;;;;;;;;;;;;;;-143.90;97.09;55051.66;2097555;28;20438;-65
2022/03/11 01:37:43;;;;;;;;;;;;;;;-143.90;97.05;55019.88;2098949;28;19927;-64
2022/03/11 01:39:03;;;;;;;;;;;;;;;-143.90;97.38;55059.59;2095400;28;19969;-64
2022/03/11 01:40:24;;;;;;;;;;;;;;;-143.90;98.26;55031.78;2095751;28;19929;-62
2022/03/11 01:41:45;;;;;;;;;;;;;;;-143.90;98.09;54972.22;2096423;28;19982;-64
2022/03/11 01:43:13;;;;;;;;;;;;;;;-143.90;98.46;55061.59;2097167;28;19924;-64
2022/03/11 01:44:34;;;;;;;;;;;;;;;-143.90;99.47;55031.78;2106391;28;19924;-64
2022/03/11 01:45:56;;;;;;;;;;;;;;;-143.90;99.60;55053.63;2100727;28;21900;-64
2022/03/11 01:47:16;;;;;;;;;;;;;;;-143.90;99.53;55043.72;2098353;28;20330;-63
2022/03/11 01:48:37;;;;;;;;;;;;;;;-143.90;99.98;55011.94;2096539;28;19932;-65
2022/03/11 01:49:58;;;;;;;;;;;;;;;-143.90;100.00;55031.78;2096470;28;19924;-63
2022/03/11 01:51:19;;;;;;;;;;;;;;;-143.90;99.99;55049.66;2096607;28;19920;-65
2022/03/11 01:52:40;;;;;;;;;;;;;;;-143.90;99.61;55027.81;2096762;28;19920;-64
2022/03/11 01:54:00;;;;;;;;;;;;;;;-143.90;99.50;55027.81;2096344;28;20011;-63
2022/03/11 01:55:21;;;;;;;;;;;;;;;-143.90;98.96;55025.84;2097331;28;20042;-64
2022/03/11 01:56:43;;;;;;;;;;;;;;;-143.90;99.03;55029.81;2095956;28;19920;-63
2022/03/11 01:58:04;;;;;;;;;;;;;;;-143.90;99.05;55055.63;2096841;28;19966;-63
2022/03/11 01:59:24;;;;;;;;;;;;;;;-143.90;99.26;55019.88;2099231;27;19924;-65
2022/03/11 02:00:45;;;;;;;;;;;;;;;-143.90;99.35;55043.72;2098489;28;20478;-64
2022/03/11 02:02:06;;;;;;;;;;;;;;;-143.90;99.19;55031.78;2088450;28;19935;-65
2022/03/11 02:03:26;;;;;;;;;;;;;;;-143.90;99.33;55067.53;2093627;28;19974;-64
2022/03/11 02:04:47;;;;;;;;;;;;;;;-143.90;99.74;55043.72;2097305;28;20097;-64
2022/03/11 02:06:08;;;;;;;;;;;;;;;-143.90;99.72;55039.75;2097955;28;20026;-64
2022/03/11 02:07:30;;;;;;;;;;;;;;;-143.90;99.77;54992.09;2097361;28;19926;-64
2022/03/11 02:08:51;;;;;;;;;;;;;;;-143.90;99.66;55057.59;2096814;28;19916;-65
2022/03/11 02:10:12;;;;;;;;;;;;;;;-143.90;99.65;55037.75;2096399;28;20752;-64
2022/03/11 02:11:32;;;;;;;;;;;;;;;-143.90;99.98;55011.94;2096838;28;19920;-64
2022/03/11 02:12:53;;;;;;;;;;;;;;;-143.90;100.00;55045.69;2096038;28;19924;-64
2022/03/11 02:14:14;;;;;;;;;;;;;;;-143.90;100.00;55051.66;2097027;28;19919;-63
2022/03/11 02:15:34;;;;;;;;;;;;;;;-143.90;100.00;55039.75;2096481;28;19967;-65
2022/03/11 02:16:56;;;;;;;;;;;;;;;-143.90;100.00;55019.88;2097425;28;19974;-63
2022/03/11 02:18:17;;;;;;;;;;;;;;;-143.90;100.00;55009.97;2096888;28;19920;-67
2022/03/11 02:19:37;;;;;;;;;;;;;;;-143.90;100.00;55059.59;2096100;28;19932;-65
2022/03/11 02:20:58;;;;;;;;;;;;;;;-143.90;100.00;55047.69;2097017;28;20023;-64
2022/03/11 02:22:19;;;;;;;;;;;;;;;-143.90;100.00;55067.53;2105599;28;19923;-65
2022/03/11 02:23:47;;;;;;;;;;;;;;;-143.90;100.00;55055.63;2092615;28;20787;-65
2022/03/11 02:25:08;;;;;;;;;;;;;;;-143.90;100.00;55035.78;2095307;28;20398;-64
2022/03/11 02:26:30;;;;;;;;;;;;;;;-143.90;100.00;55051.66;2096975;28;20491;-65
2022/03/11 02:27:51;;;;;;;;;;;;;;;-143.90;100.00;55079.44;2096831;28;20458;-65
2022/03/11 02:29:11;;;;;;;;;;;;;;;-143.90;100.00;55047.69;2095708;28;19921;-65
2022/03/11 02:30:32;;;;;;;;;;;;;;;-143.90;100.00;55059.59;2097412;28;20001;-65
2022/03/11 02:31:53;;;;;;;;;;;;;;;-143.90;100.00;55031.78;2096112;28;20694;-64
2022/03/11 02:33:13;;;;;;;;;;;;;;;-143.90;100.00;54996.06;2098383;28;19925;-65
2022/03/11 02:34:34;;;;;;;;;;;;;;;-143.90;100.00;55053.63;2093728;28;20467;-64
2022/03/11 02:35:56;;;;;;;;;;;;;;;-143.90;100.00;54992.09;2096526;28;19928;-64
2022/03/11 02:37:16;;;;;;;;;;;;;;;-143.90;100.00;55043.72;2095514;28;19920;-63
2022/03/11 02:38:37;;;;;;;;;;;;;;;-143.90;100.00;55031.78;2096457;28;19920;-65
2022/03/11 02:39:58;;;;;;;;;;;;;;;-143.90;100.00;55031.78;2088990;28;20378;-63
2022/03/11 02:41:18;;;;;;;;;;;;;;;-143.90;100.00;55011.94;2094243;28;19920;-64
2022/03/11 02:42:39;;;;;;;;;;;;;;;-143.90;100.00;55063.56;2088583;28;20606;-64
2022/03/11 02:44:00;;;;;;;;;;;;;;;-143.90;100.00;55057.59;2094348;28;20456;-63
2022/03/11 02:45:21;;;;;;;;;;;;;;;-143.90;100.00;55043.72;2097017;28;19920;-64
2022/03/11 02:46:41;;;;;;;;;;;;;;;-143.90;100.00;55027.81;2096910;28;19920;-64
2022/03/11 02:48:02;;;;;;;;;;;;;;;-143.90;100.00;55071.50;2097430;28;19920;-64
2022/03/11 02:49:23;;;;;;;;;;;;;;;-143.90;100.00;55039.75;2096558;28;20380;-64
2022/03/11 02:50:45;;;;;;;;;;;;;;;-143.90;100.00;55019.88;2096109;28;19924;-64
2022/03/11 02:52:06;;;;;;;;;;;;;;;-143.90;100.00;55043.72;2104091;28;19920;-61
2022/03/11 02:53:26;;;;;;;;;;;;;;;-143.90;100.00;55043.72;2099280;28;19924;-64
2022/03/11 02:54:48;;;;;;;;;;;;;;;-143.90;100.00;55045.69;2095889;28;20284;-64
2022/03/11 02:56:09;;;;;;;;;;;;;;;-143.90;100.00;54992.09;2095310;28;19927;-63
2022/03/11 02:57:30;;;;;;;;;;;;;;;-143.90;100.00;55043.72;2095547;28;20639;-63
2022/03/11 02:58:51;;;;;;;;;;;;;;;-143.90;100.00;55031.78;2096271;28;19921;-62
2022/03/11 03:00:11;;;;;;;;;;;;;;;-143.90;100.00;55031.78;2098136;28;19927;-63
2022/03/11 03:01:32;;;;;;;;;;;;;;;-143.90;100.00;55031.78;2096603;28;20033;-62
2022/03/11 03:02:53;;;;;;;;;;;;;;;-143.90;100.00;55073.50;2097441;28;19920;-63
2022/03/11 03:04:14;;;;;;;;;;;;;;;-143.90;100.00;55039.75;2096224;28;19924;-64
2022/03/11 03:05:35;;;;;;;;;;;;;;;-143.90;100.00;54988.13;2098996;28;19924;-62
2022/03/11 03:06:55;;;;;;;;;;;;;;;-143.90;100.00;55063.56;2099488;28;19924;-63
2022/03/11 03:08:16;;;;;;;;;;;;;;;-143.90;100.00;55059.59;2099611;28;19920;-64
2022/03/11 03:09:41;;;;;;;;;;;;;;;-143.90;100.00;55053.63;2097011;28;19962;-63
2022/03/11 03:11:02;;;;;;;;;;;;;;;-143.90;100.00;55039.75;2097137;28;19981;-64
2022/03/11 03:12:23;;;;;;;;;;;;;;;-143.90;100.00;55039.75;2096766;28;19920;-64
2022/03/11 03:13:43;;;;;;;;;;;;;;;-143.90;100.00;55035.78;2088292;28;19931;-63
2022/03/11 03:15:04;;;;;;;;;;;;;;;-143.90;100.00;55031.78;2104582;27;20011;-63
2022/03/11 03:16:25;;;;;;;;;;;;;;;-143.90;100.00;55055.63;2101119;28;19975;-62
2022/03/11 03:17:46;;;;;;;;;;;;;;;-143.90;100.00;55047.69;2097370;28;19920;-63
2022/03/11 03:19:06;;;;;;;;;;;;;;;-143.90;100.00;55047.69;2096434;28;20015;-63
2022/03/11 03:20:27;;;;;;;;;;;;;;;-143.90;100.00;55023.84;2097322;28;20005;-61
2022/03/11 03:21:49;;;;;;;;;;;;;;;-143.90;100.00;55007.97;2095879;28;19931;-64
2022/03/11 03:23:09;;;;;;;;;;;;;;;-143.90;100.00;55071.50;2097579;28;19920;-63
2022/03/11 03:24:30;;;;;;;;;;;;;;;-143.90;100.00;55063.56;2097092;28;20406;-63
2022/03/11 03:25:51;;;;;;;;;;;;;;;-143.90;100.00;55055.63;2097043;28;19920;-62
2022/03/11 03:27:13;;;;;;;;;;;;;;;-143.90;100.00;55043.72;2096413;28;20027;-63
2022/03/11 03:28:33;;;;;;;;;;;;;;;-143.90;100.00;55051.66;2096509;28;19932;-64
2022/03/11 03:29:54;;;;;;;;;;;;;;;-143.90;100.00;55035.78;2094969;28;20444;-62
2022/03/11 03:31:17;;;;;;;;;;;;;;;-143.90;100.00;55033.78;2099049;28;20374;-64
2022/03/11 03:32:39;;;;;;;;;;;;;;;-143.90;100.00;55057.59;2093124;28;19924;-62
2022/03/11 03:34:00;;;;;;;;;;;;;;;-143.90;100.00;55047.69;2099147;28;19928;-64
2022/03/11 03:35:21;;;;;;;;;;;;;;;-143.90;100.00;55043.72;2096181;28;19966;-63
2022/03/11 03:36:41;;;;;;;;;;;;;;;-143.90;100.00;54988.13;2098122;28;20485;-63
2022/03/11 03:38:02;;;;;;;;;;;;;;;-143.90;100.00;55059.59;2097629;28;19920;-63
2022/03/11 03:39:23;;;;;;;;;;;;;;;-143.90;100.00;55035.78;2096486;28;19924;-64
2022/03/11 03:40:46;;;;;;;;;;;;;;;-143.90;100.00;55047.69;2097823;28;19989;-64
2022/03/11 03:42:07;;;;;;;;;;;;;;;-143.90;100.00;55067.53;2086973;28;20025;-61
2022/03/11 03:43:28;;;;;;;;;;;;;;;-143.90;100.00;55029.81;2094508;28;20363;-63
2022/03/11 03:44:49;;;;;;;;;;;;;;;-143.90;100.00;55055.63;2098228;28;19920;-63
2022/03/11 03:46:09;;;;;;;;;;;;;;;-143.90;100.00;55007.97;2095779;28;19920;-62
2022/03/11 03:47:30;;;;;;;;;;;;;;;-143.90;100.00;55007.97;2096624;28;19920;-62
2022/03/11 03:48:51;;;;;;;;;;;;;;;-143.90;100.00;55004.00;2097577;28;19920;-62
2022/03/11 03:50:11;;;;;;;;;;;;;;;-143.90;100.00;55033.78;2094615;28;20581;-62
2022/03/11 03:51:32;;;;;;;;;;;;;;;-143.90;100.00;55079.44;2096823;28;19920;-64
2022/03/11 03:52:52;;;;;;;;;;;;;;;-143.90;100.00;55043.72;2097370;28;20474;-63
2022/03/11 03:54:13;;;;;;;;;;;;;;;-143.90;100.00;55039.75;2096597;28;20065;-63
2022/03/11 03:55:34;;;;;;;;;;;;;;;-143.90;100.00;55067.53;2095669;28;19947;-63
2022/03/11 03:56:55;;;;;;;;;;;;;;;-143.90;100.00;55029.81;2096263;28;20003;-64
2022/03/11 03:58:15;;;;;;;;;;;;;;;-143.90;100.00;55029.81;2095045;28;19931;-63
2022/03/11 03:59:39;;;;;;;;;;;;;;;-143.90;100.00;55027.81;2096811;28;19928;-63
2022/03/11 04:00:59;;;;;;;;;;;;;;;-143.90;100.00;55065.56;2095857;28;19931;-63
2022/03/11 04:02:20;;;;;;;;;;;;;;;-143.90;100.00;55023.84;2096894;28;19912;-64
2022/03/11 04:03:41;;;;;;;;;;;;;;;-143.90;100.00;55043.72;2096803;28;19920;-63
2022/03/11 04:05:01;;;;;;;;;;;;;;;-143.90;100.00;55083.41;2095924;28;19974;-63
2022/03/11 04:06:22;;;;;;;;;;;;;;;-143.90;100.00;55053.63;2095555;28;19920;-63
2022/03/11 04:07:43;;;;;;;;;;;;;;;-143.90;100.00;55035.78;2095178;28;19973;-62
2022/03/11 04:09:07;;;;;;;;;;;;;;;-143.90;100.00;55027.81;2095172;28;20415;-62
2022/03/11 04:10:28;;;;;;;;;;;;;;;-143.90;100.00;55069.53;2097661;28;19927;-63
2022/03/11 04:11:48;;;;;;;;;;;;;;;-143.90;100.00;54984.16;2095178;28;20273;-63
2022/03/11 04:13:09;;;;;;;;;;;;;;;-143.90;100.00;55023.84;2098433;28;19925;-65
2022/03/11 04:14:30;;;;;;;;;;;;;;;-143.90;100.00;55065.56;2098118;28;20434;-63
2022/03/11 04:15:50;;;;;;;;;;;;;;;-143.90;100.00;55007.97;2095550;28;20005;-64
2022/03/11 04:17:11;;;;;;;;;;;;;;;-143.90;100.00;55009.97;2096611;28;19932;-62
2022/03/11 04:18:32;;;;;;;;;;;;;;;-143.90;100.00;55007.97;2095601;28;20001;-63
2022/03/11 04:19:53;;;;;;;;;;;;;;;-143.90;100.00;55055.63;2096596;28;19920;-63
2022/03/11 04:21:14;;;;;;;;;;;;;;;-143.90;100.00;55045.69;2097600;28;19967;-63
2022/03/11 04:22:41;;;;;;;;;;;;;;;-143.90;100.00;55033.78;2098748;28;20729;-63
2022/03/11 04:24:03;;;;;;;;;;;;;;;-143.90;100.00;55031.78;2096401;28;19920;-64
2022/03/11 04:25:25;;;;;;;;;;;;;;;-143.90;100.00;55063.56;2096302;28;19920;-63
2022/03/11 04:26:46;;;;;;;;;;;;;;;-143.90;100.00;55031.78;2097367;28;19928;-63
2022/03/11 04:28:06;;;;;;;;;;;;;;;-143.90;100.00;55047.69;2097053;28;19924;-62
2022/03/11 04:29:27;;;;;;;;;;;;;;;-143.90;100.00;55047.69;2095497;28;19970;-64
2022/03/11 04:30:47;;;;;;;;;;;;;;;-143.90;100.00;55027.81;2096420;28;20332;-64
2022/03/11 04:32:08;;;;;;;;;;;;;;;-143.90;100.00;55021.88;2095726;28;19924;-63
2022/03/11 04:33:31;;;;;;;;;;;;;;;-143.90;100.00;55023.84;2097752;28;19924;-63
2022/03/11 04:34:52;;;;;;;;;;;;;;;-143.90;100.00;55039.75;2096786;28;19928;-63
2022/03/11 04:36:13;;;;;;;;;;;;;;;-143.90;100.00;55035.78;2096731;28;19926;-62
2022/03/11 04:37:34;;;;;;;;;;;;;;;-143.90;100.00;55039.75;2097309;28;19931;-63
2022/03/11 04:38:55;;;;;;;;;;;;;;;-143.90;100.00;55011.94;2095474;28;20390;-63
2022/03/11 04:40:15;;;;;;;;;;;;;;;-143.90;100.00;54982.16;2097155;28;20597;-62
2022/03/11 04:41:36;;;;;;;;;;;;;;;-143.90;100.00;55027.81;2097632;28;19920;-62
2022/03/11 04:42:57;;;;;;;;;;;;;;;-143.90;100.00;55035.78;2097388;28;19927;-64
2022/03/11 04:44:18;;;;;;;;;;;;;;;-143.90;100.00;55041.72;2096221;28;19927;-64
2022/03/11 04:45:38;;;;;;;;;;;;;;;-143.90;100.00;55047.69;2096978;28;19924;-64
2022/03/11 04:46:59;;;;;;;;;;;;;;;-143.90;100.00;55011.94;2097882;28;19921;-64
2022/03/11 04:48:20;;;;;;;;;;;;;;;-143.90;100.00;55067.53;2096935;28;20261;-64
2022/03/11 04:49:40;;;;;;;;;;;;;;;-143.90;100.00;55085.41;2099882;28;19935;-63
2022/03/11 04:51:01;;;;;;;;;;;;;;;-143.90;100.00;55055.63;2097925;28;19927;-62
2022/03/11 04:52:22;;;;;;;;;;;;;;;-143.90;100.00;55061.59;2096450;28;20003;-63
2022/03/11 04:53:46;;;;;;;;;;;;;;;-143.90;100.00;55039.75;2097423;28;19977;-61
2022/03/11 04:55:07;;;;;;;;;;;;;;;-143.90;100.00;55039.75;2096587;28;19921;-62
2022/03/11 04:56:27;;;;;;;;;;;;;;;-143.90;100.00;55011.94;2097771;28;19959;-64
2022/03/11 04:57:48;;;;;;;;;;;;;;;-143.90;100.00;55047.69;2098813;28;19921;-62
2022/03/11 04:59:09;;;;;;;;;;;;;;;-143.90;100.00;55027.81;2096670;28;19920;-64
2022/03/11 05:00:29;;;;;;;;;;;;;;;-143.90;100.00;55033.78;2097655;28;19926;-63
2022/03/11 05:01:50;;;;;;;;;;;;;;;-143.90;100.00;55047.69;2098495;27;20299;-62
2022/03/11 05:03:10;;;;;;;;;;;;;;;-143.90;100.00;54996.06;2098158;28;20032;-62
2022/03/11 05:04:31;;;;;;;;;;;;;;;-143.90;100.00;55011.94;2097842;28;20382;-62
2022/03/11 05:05:53;;;;;;;;;;;;;;;-143.90;100.00;55019.88;2098051;28;19920;-62
2022/03/11 05:07:13;;;;;;;;;;;;;;;-143.90;100.00;55041.72;2097398;28;19920;-63
2022/03/11 05:08:34;;;;;;;;;;;;;;;-143.90;100.00;55051.66;2096739;28;19928;-63
2022/03/11 05:09:54;;;;;;;;;;;;;;;-143.90;100.00;55039.75;2097137;28;19931;-63
2022/03/11 05:11:15;;;;;;;;;;;;;;;-143.90;100.00;55047.69;2096800;28;19920;-63
2022/03/11 05:12:37;;;;;;;;;;;;;;;-143.90;100.00;55015.91;2095992;28;19927;-59
2022/03/11 05:13:58;;;;;;;;;;;;;;;-143.90;100.00;55083.41;2097473;28;20423;-64
2022/03/11 05:15:19;;;;;;;;;;;;;;;-143.90;100.00;55055.63;2097827;28;20374;-62
2022/03/11 05:16:40;;;;;;;;;;;;;;;-143.90;100.00;55075.47;2096925;28;19932;-63
2022/03/11 05:18:01;;;;;;;;;;;;;;;-143.90;100.00;55061.59;2096478;28;19927;-63
2022/03/11 05:19:24;;;;;;;;;;;;;;;-143.90;100.00;55037.75;2096577;28;20018;-64
2022/03/11 05:20:45;;;;;;;;;;;;;;;-143.90;100.00;55063.56;2096679;28;19978;-62
2022/03/11 05:22:05;;;;;;;;;;;;;;;-143.90;100.00;55023.84;2098580;28;19992;-64
2022/03/11 05:23:26;;;;;;;;;;;;;;;-143.90;100.00;55027.81;2097386;28;20048;-63
2022/03/11 05:24:47;;;;;;;;;;;;;;;-143.90;100.00;55051.66;2096917;28;19982;-64
2022/03/11 05:26:24;;;;;;;;;;;;;;;-143.90;100.00;55055.63;2097487;28;19920;-63
2022/03/11 05:27:45;;;;;;;;;;;;;;;-143.90;100.00;55004.00;2095999;28;19924;-62
2022/03/11 05:29:05;;;;;;;;;;;;;;;-143.90;100.00;55015.91;2097198;28;19928;-64
2022/03/11 05:30:26;;;;;;;;;;;;;;;-143.90;100.00;55015.91;2096793;28;19920;-62
2022/03/11 05:31:47;;;;;;;;;;;;;;;-143.90;100.00;55075.47;2098739;28;19977;-62
2022/03/11 05:33:08;;;;;;;;;;;;;;;-143.90;100.00;55027.81;2098219;28;19928;-63
2022/03/11 05:34:30;;;;;;;;;;;;;;;-143.90;100.00;55039.75;2097042;28;19919;-64
2022/03/11 05:35:51;;;;;;;;;;;;;;;-143.90;100.00;55027.81;2098451;27;20861;-63
2022/03/11 05:37:11;;;;;;;;;;;;;;;-143.90;100.00;55059.59;2097288;28;19920;-61
2022/03/11 05:38:32;;;;;;;;;;;;;;;-143.90;100.00;55011.94;2098311;28;19916;-62
2022/03/11 05:39:53;;;;;;;;;;;;;;;-143.90;100.00;55039.75;2096971;28;20557;-64
2022/03/11 05:41:13;;;;;;;;;;;;;;;-143.90;100.00;55053.63;2098133;28;19920;-63
2022/03/11 05:42:34;;;;;;;;;;;;;;;-143.90;100.00;55019.88;2097038;28;20416;-63
2022/03/11 05:43:55;;;;;;;;;;;;;;;-143.90;100.00;55039.75;2096723;28;20006;-64
2022/03/11 05:45:17;;;;;;;;;;;;;;;-143.90;100.00;55051.66;2097402;28;19927;-63
2022/03/11 05:46:37;;;;;;;;;;;;;;;-143.90;100.00;55006.00;2097017;28;19966;-64
2022/03/11 05:47:58;;;;;;;;;;;;;;;-143.90;100.00;55033.78;2096381;28;19924;-63
2022/03/11 05:49:19;;;;;;;;;;;;;;;-143.90;100.00;55035.78;2097564;28;20596;-62
2022/03/11 05:50:40;;;;;;;;;;;;;;;-143.90;100.00;55031.78;2097780;28;19955;-63
2022/03/11 05:52:02;;;;;;;;;;;;;;;-143.90;100.00;55051.66;2097720;28;19927;-62
2022/03/11 05:53:22;;;;;;;;;;;;;;;-143.90;100.00;55043.72;2095957;28;19978;-62
2022/03/11 05:54:43;;;;;;;;;;;;;;;-143.90;100.00;55039.75;2095786;28;19916;-64
2022/03/11 05:56:04;;;;;;;;;;;;;;;-143.90;100.00;55011.94;2096669;28;19924;-63
2022/03/11 05:57:25;;;;;;;;;;;;;;;-143.90;100.00;55041.72;2097304;28;19920;-63
2022/03/11 05:58:46;;;;;;;;;;;;;;;-143.90;100.00;55004.00;2098188;28;19998;-63
2022/03/11 06:00:07;;;;;;;;;;;;;;;-143.90;100.00;55011.94;2097254;28;19920;-61
2022/03/11 06:01:33;;;;;;;;;;;;;;;-143.90;100.00;55057.59;2096207;28;19927;-63
2022/03/11 06:02:53;;;;;;;;;;;;;;;-143.90;100.00;55029.81;2096976;28;20852;-63
2022/03/11 06:04:14;;;;;;;;;;;;;;;-143.90;100.00;55039.75;2097232;28;19920;-63
2022/03/11 06:05:35;;;;;;;;;;;;;;;-143.90;100.00;55063.56;2097507;28;19920;-64
2022/03/11 06:06:55;;;;;;;;;;;;;;;-143.90;100.00;55023.84;2097233;28;19920;-64
2022/03/11 06:08:16;;;;;;;;;;;;;;;-143.90;100.00;55057.59;2095579;28;19993;-62
2022/03/11 06:09:36;;;;;;;;;;;;;;;-143.90;100.00;55051.66;2096302;28;19974;-64
2022/03/11 06:10:57;;;;;;;;;;;;;;;-143.90;100.00;55000.03;2096599;28;19923;-63
2022/03/11 06:12:19;;;;;;;;;;;;;;;-143.90;100.00;55009.97;2097030;28;19921;-64
2022/03/11 06:13:40;;;;;;;;;;;;;;;-143.90;100.00;55007.97;2097028;28;19923;-65
2022/03/11 06:15:04;;;;;;;;;;;;;;;-143.90;100.00;55051.66;2096211;28;20046;-65
2022/03/11 06:16:25;;;;;;;;;;;;;;;-143.90;100.00;55031.78;2096348;28;20556;-64
2022/03/11 06:17:46;;;;;;;;;;;;;;;-143.90;100.00;55017.91;2096930;28;19922;-65
2022/03/11 06:19:07;;;;;;;;;;;;;;;-143.90;100.00;55047.69;2087810;28;20687;-63
2022/03/11 06:20:30;;;;;;;;;;;;;;;-143.90;100.00;54996.06;2094992;28;19923;-64
2022/03/11 06:21:51;;;;;;;;;;;;;;;-143.90;100.00;55057.59;2097554;28;19920;-62
2022/03/11 06:23:13;;;;;;;;;;;;;;;-143.90;100.00;55023.84;2097805;27;19916;-64
2022/03/11 06:24:34;;;;;;;;;;;;;;;-143.90;100.00;55039.75;2096241;28;20011;-64
2022/03/11 06:25:55;;;;;;;;;;;;;;;-143.90;100.00;55051.66;2104477;28;20014;-65
2022/03/11 06:27:17;;;;;;;;;;;;;;;-143.90;100.00;55071.50;2098902;28;19926;-65
2022/03/11 06:28:37;;;;;;;;;;;;;;;-143.90;100.00;55061.59;2097849;28;19932;-64
2022/03/11 06:29:58;;;;;;;;;;;;;;;-143.90;100.00;55027.81;2098311;28;19920;-64
2022/03/11 06:31:18;;;;;;;;;;;;;;;-143.90;100.00;55033.78;2096547;28;19920;-62
2022/03/11 06:32:42;;;;;;;;;;;;;;;-143.90;100.00;55043.72;2096158;28;19916;-63
2022/03/11 06:34:03;;;;;;;;;;;;;;;-143.90;100.00;55029.81;2097097;28;19924;-63
2022/03/11 06:35:24;;;;;;;;;;;;;;;-143.90;100.00;55015.91;2096347;28;19916;-65
2022/03/11 06:36:44;;;;;;;;;;;;;;;-143.90;100.00;55007.97;2097748;28;20459;-65
2022/03/11 06:38:07;;;;;;;;;;;;;;;-143.90;100.00;55053.63;2088407;28;20467;-65
2022/03/11 06:39:28;;;;;;;;;;;;;;;-143.90;99.37;55045.69;2093011;28;19932;-63
2022/03/11 06:40:49;;;;;;;;;;;;;;;-143.90;95.45;55037.75;2105229;28;19963;-64
2022/03/11 06:42:10;;;;;;;;;;;;;;;-143.90;93.56;55039.75;2098831;28;19920;-63
2022/03/11 06:43:30;;;;;;;;;;;;;;;-143.90;91.50;55031.78;2096430;28;20332;-64
2022/03/11 06:44:51;;;;;;;;;;;;;;;-143.90;89.26;55039.75;2097342;28;20450;-66
2022/03/11 06:46:11;;;;;;;;;;;;;;;-143.90;87.88;54982.16;2096708;28;20291;-65
2022/03/11 06:47:33;;;;;;;;;;;;;;;-143.90;86.72;55039.75;2096073;28;19916;-65